This is the latest recevied weather packets stored in our database for station/object SY3EBK-13. If no packets are shown the sender has not sent any weather packets the latest 10 day(s).
| Time | Temp. | Humidity | Pressure | Rain* | Wind** | Luminosity | Snow |
|---|---|---|---|---|---|---|---|
| 1788438120 | 25.56° C | 57% | 914 hPa | - | 0 m/s | - | - |
| 1788435420 | 28.33° C | 42% | 913.7 hPa | - | 0 m/s | - | - |
| 1788433620 | 30° C | 35% | 913.7 hPa | - | 0 m/s | - | - |
| 1788431820 | 31.11° C | 32% | 913.7 hPa | - | 0 m/s | - | - |
| 1788430920 | 30.56° C | 32% | 913.9 hPa | - | 0 m/s | - | - |
| 1788430020 | 30.56° C | 32% | 914.1 hPa | - | 0 m/s | - | - |
| 1788429120 | 30.56° C | 32% | 914.3 hPa | - | 0 m/s | - | - |
| 1788428220 | 31.11° C | 31% | 914.4 hPa | - | 0 m/s | - | - |
| 1788427320 | 31.11° C | 31% | 914.6 hPa | - | 0 m/s | - | - |
| 1788426420 | 30.56° C | 32% | 914.7 hPa | - | 0 m/s | - | - |
| 1788425520 | 28.89° C | 34% | 914.8 hPa | - | 0 m/s | - | - |
| 1788424620 | 28.89° C | 35% | 914.9 hPa | - | 0 m/s | - | - |
| 1788423720 | 28.33° C | 36% | 914.9 hPa | - | 0 m/s | - | - |
| 1788422820 | 27.78° C | 36% | 914.8 hPa | - | 0 m/s | - | - |
| 1788421920 | 27.78° C | 37% | 914.9 hPa | - | 0 m/s | - | - |
| 1788421020 | 27.22° C | 38% | 915 hPa | - | 0 m/s | - | - |
| 1788420120 | 26.67° C | 38% | 915 hPa | - | 0 m/s | - | - |
| 1788419220 | 26.11° C | 38% | 914.9 hPa | - | 0 m/s | - | - |
| 1788418320 | 25.56° C | 39% | 914.9 hPa | - | 0 m/s | - | - |
| 1788417420 | 25° C | 40% | 914.9 hPa | - | 0 m/s | - | - |
| 1788416520 | 24.44° C | 42% | 914.8 hPa | - | 0 m/s | - | - |
| 1788415620 | 23.89° C | 43% | 914.9 hPa | - | 0 m/s | - | - |
| 1788414720 | 23.33° C | 44% | 914.8 hPa | - | 0 m/s | - | - |
| 1788413820 | 22.78° C | 47% | 914.9 hPa | - | 0 m/s | - | - |
| 1788412920 | 22.22° C | 47% | 914.9 hPa | - | 0 m/s | - | - |
* Rain since midnight (hover to see other rain measurements)
** Current wind speed in m/s (hover to see current wind gust speed)